sensor_id;sensor_type;location;lat;lon;timestamp;pressure;altitude;pressure_sealevel;temperature;humidity
76753;BME280;65687;51.308;16.916;2023-06-14T00:03:23;99697.83;;;10.85;69.56
76753;BME280;65687;51.308;16.916;2023-06-14T00:08:25;99696.79;;;10.77;69.91
76753;BME280;65687;51.308;16.916;2023-06-14T00:13:27;99702.18;;;10.66;70.18
76753;BME280;65687;51.308;16.916;2023-06-14T00:18:29;99708.55;;;10.57;70.64
76753;BME280;65687;51.308;16.916;2023-06-14T00:23:31;99707.31;;;10.53;70.73
76753;BME280;65687;51.308;16.916;2023-06-14T00:28:32;99706.20;;;10.47;71.03
76753;BME280;65687;51.308;16.916;2023-06-14T00:33:34;99708.21;;;10.46;71.09
76753;BME280;65687;51.308;16.916;2023-06-14T00:38:35;99707.30;;;10.40;71.60
76753;BME280;65687;51.308;16.916;2023-06-14T00:43:37;99719.86;;;10.35;71.79
76753;BME280;65687;51.308;16.916;2023-06-14T00:48:39;99717.48;;;10.27;72.18
76753;BME280;65687;51.308;16.916;2023-06-14T00:53:41;99712.88;;;10.21;72.61
76753;BME280;65687;51.308;16.916;2023-06-14T00:58:47;99714.66;;;10.15;72.85
76753;BME280;65687;51.308;16.916;2023-06-14T01:03:50;99716.81;;;10.12;73.28
76753;BME280;65687;51.308;16.916;2023-06-14T01:09:09;99711.19;;;10.12;73.39
76753;BME280;65687;51.308;16.916;2023-06-14T01:14:15;99708.41;;;10.08;73.22
76753;BME280;65687;51.308;16.916;2023-06-14T01:19:18;99704.31;;;10.07;73.49
76753;BME280;65687;51.308;16.916;2023-06-14T01:24:20;99708.66;;;10.03;73.83
76753;BME280;65687;51.308;16.916;2023-06-14T01:29:25;99711.14;;;10.03;74.12
76753;BME280;65687;51.308;16.916;2023-06-14T01:34:29;99710.57;;;10.10;74.11
76753;BME280;65687;51.308;16.916;2023-06-14T01:39:32;99702.88;;;10.16;73.92
76753;BME280;65687;51.308;16.916;2023-06-14T01:44:33;99699.26;;;10.17;73.49
76753;BME280;65687;51.308;16.916;2023-06-14T01:49:35;99698.70;;;10.14;73.18
76753;BME280;65687;51.308;16.916;2023-06-14T01:54:36;99695.88;;;10.07;73.65
76753;BME280;65687;51.308;16.916;2023-06-14T01:59:43;99696.48;;;10.03;73.90
76753;BME280;65687;51.308;16.916;2023-06-14T02:04:49;99698.85;;;10.06;74.03
76753;BME280;65687;51.308;16.916;2023-06-14T02:09:50;99696.73;;;10.04;74.18
76753;BME280;65687;51.308;16.916;2023-06-14T02:14:52;99689.36;;;9.97;74.26
76753;BME280;65687;51.308;16.916;2023-06-14T02:19:54;99683.09;;;9.89;74.62
76753;BME280;65687;51.308;16.916;2023-06-14T02:24:55;99684.85;;;9.83;74.88
76753;BME280;65687;51.308;16.916;2023-06-14T02:29:57;99688.59;;;9.73;74.84
76753;BME280;65687;51.308;16.916;2023-06-14T02:34:58;99689.65;;;9.69;75.03
76753;BME280;65687;51.308;16.916;2023-06-14T02:40:00;99695.67;;;9.62;75.42
76753;BME280;65687;51.308;16.916;2023-06-14T02:45:01;99703.91;;;9.59;75.65
76753;BME280;65687;51.308;16.916;2023-06-14T02:50:06;99706.10;;;9.55;75.65
76753;BME280;65687;51.308;16.916;2023-06-14T02:55:08;99702.81;;;9.53;75.76
76753;BME280;65687;51.308;16.916;2023-06-14T03:00:11;99701.84;;;9.56;76.31
76753;BME280;65687;51.308;16.916;2023-06-14T03:05:14;99700.61;;;9.61;76.13
76753;BME280;65687;51.308;16.916;2023-06-14T03:10:16;99698.83;;;9.62;75.79
76753;BME280;65687;51.308;16.916;2023-06-14T03:15:17;99697.24;;;9.63;75.40
76753;BME280;65687;51.308;16.916;2023-06-14T03:20:19;99697.23;;;9.61;75.32
76753;BME280;65687;51.308;16.916;2023-06-14T03:25:21;99698.05;;;9.60;75.29
76753;BME280;65687;51.308;16.916;2023-06-14T03:30:23;99698.67;;;9.57;75.36
76753;BME280;65687;51.308;16.916;2023-06-14T03:35:24;99699.55;;;9.53;75.69
76753;BME280;65687;51.308;16.916;2023-06-14T03:40:26;99700.30;;;9.51;75.65
76753;BME280;65687;51.308;16.916;2023-06-14T03:45:28;99709.93;;;9.47;75.62
76753;BME280;65687;51.308;16.916;2023-06-14T03:50:30;99703.88;;;9.42;76.07
76753;BME280;65687;51.308;16.916;2023-06-14T03:55:33;99703.96;;;9.40;76.25
76753;BME280;65687;51.308;16.916;2023-06-14T04:00:35;99705.13;;;9.43;77.00
76753;BME280;65687;51.308;16.916;2023-06-14T04:05:37;99701.39;;;9.50;77.17
76753;BME280;65687;51.308;16.916;2023-06-14T04:10:38;99703.60;;;9.60;77.34
76753;BME280;65687;51.308;16.916;2023-06-14T04:15:40;99710.14;;;9.67;77.60
76753;BME280;65687;51.308;16.916;2023-06-14T04:20:45;99714.66;;;9.77;77.69
76753;BME280;65687;51.308;16.916;2023-06-14T04:25:46;99719.35;;;9.92;77.92
76753;BME280;65687;51.308;16.916;2023-06-14T04:30:48;99719.29;;;10.04;77.87
76753;BME280;65687;51.308;16.916;2023-06-14T04:35:50;99718.52;;;10.13;77.96
76753;BME280;65687;51.308;16.916;2023-06-14T04:40:54;99727.99;;;10.23;77.91
76753;BME280;65687;51.308;16.916;2023-06-14T04:45:58;99739.80;;;10.33;78.22
76753;BME280;65687;51.308;16.916;2023-06-14T04:50:59;99747.89;;;10.49;78.47
76753;BME280;65687;51.308;16.916;2023-06-14T04:56:01;99743.36;;;10.68;78.69
76753;BME280;65687;51.308;16.916;2023-06-14T05:01:04;99737.42;;;10.89;78.79
76753;BME280;65687;51.308;16.916;2023-06-14T05:06:06;99737.26;;;11.08;78.25
76753;BME280;65687;51.308;16.916;2023-06-14T05:11:07;99742.84;;;11.28;77.71
76753;BME280;65687;51.308;16.916;2023-06-14T05:16:09;99739.44;;;11.44;77.67
76753;BME280;65687;51.308;16.916;2023-06-14T05:21:11;99750.84;;;11.62;77.22
76753;BME280;65687;51.308;16.916;2023-06-14T05:26:13;99752.60;;;11.72;76.89
76753;BME280;65687;51.308;16.916;2023-06-14T05:31:14;99756.73;;;11.79;76.93
76753;BME280;65687;51.308;16.916;2023-06-14T05:36:16;99758.95;;;11.84;77.13
76753;BME280;65687;51.308;16.916;2023-06-14T05:41:18;99753.65;;;11.95;77.34
76753;BME280;65687;51.308;16.916;2023-06-14T05:46:22;99751.02;;;12.05;77.60
76753;BME280;65687;51.308;16.916;2023-06-14T05:51:26;99746.66;;;12.18;77.31
76753;BME280;65687;51.308;16.916;2023-06-14T05:56:28;99736.88;;;12.24;77.60
76753;BME280;65687;51.308;16.916;2023-06-14T06:01:29;99736.84;;;12.39;77.67
76753;BME280;65687;51.308;16.916;2023-06-14T06:06:31;99745.63;;;12.51;78.19
76753;BME280;65687;51.308;16.916;2023-06-14T06:11:33;99748.33;;;12.65;78.18
76753;BME280;65687;51.308;16.916;2023-06-14T06:16:35;99757.27;;;12.86;77.73
76753;BME280;65687;51.308;16.916;2023-06-14T06:21:36;99763.20;;;13.05;77.35
76753;BME280;65687;51.308;16.916;2023-06-14T06:26:38;99766.73;;;13.17;77.41
76753;BME280;65687;51.308;16.916;2023-06-14T06:31:41;99772.23;;;13.24;77.24
76753;BME280;65687;51.308;16.916;2023-06-14T06:36:42;99773.79;;;13.25;77.42
76753;BME280;65687;51.308;16.916;2023-06-14T06:41:44;99773.50;;;13.35;77.30
76753;BME280;65687;51.308;16.916;2023-06-14T06:46:45;99770.19;;;13.57;76.83
76753;BME280;65687;51.308;16.916;2023-06-14T06:52:06;99779.41;;;13.67;77.13
76753;BME280;65687;51.308;16.916;2023-06-14T06:57:08;99782.08;;;13.73;76.86
76753;BME280;65687;51.308;16.916;2023-06-14T07:02:10;99791.81;;;13.77;76.86
76753;BME280;65687;51.308;16.916;2023-06-14T07:07:11;99798.19;;;13.86;76.14
76753;BME280;65687;51.308;16.916;2023-06-14T07:12:13;99798.25;;;13.94;75.68
76753;BME280;65687;51.308;16.916;2023-06-14T07:17:14;99795.70;;;14.07;75.43
76753;BME280;65687;51.308;16.916;2023-06-14T07:22:16;99798.70;;;14.16;74.91
76753;BME280;65687;51.308;16.916;2023-06-14T07:27:18;99795.99;;;14.19;75.30
76753;BME280;65687;51.308;16.916;2023-06-14T07:32:20;99793.80;;;14.43;74.46
76753;BME280;65687;51.308;16.916;2023-06-14T07:37:22;99799.48;;;14.65;73.93
76753;BME280;65687;51.308;16.916;2023-06-14T07:42:23;99802.29;;;14.68;73.62
76753;BME280;65687;51.308;16.916;2023-06-14T07:47:25;99801.91;;;14.67;73.11
76753;BME280;65687;51.308;16.916;2023-06-14T07:52:26;99795.06;;;14.84;72.46
76753;BME280;65687;51.308;16.916;2023-06-14T07:57:28;99790.23;;;15.07;72.06
76753;BME280;65687;51.308;16.916;2023-06-14T08:02:29;99788.10;;;15.17;71.11
76753;BME280;65687;51.308;16.916;2023-06-14T08:07:31;99789.90;;;15.30;71.35
76753;BME280;65687;51.308;16.916;2023-06-14T08:12:33;99797.44;;;15.42;71.29
76753;BME280;65687;51.308;16.916;2023-06-14T08:17:36;99791.66;;;15.61;69.89
76753;BME280;65687;51.308;16.916;2023-06-14T08:22:37;99783.49;;;15.96;69.28
76753;BME280;65687;51.308;16.916;2023-06-14T08:27:39;99786.06;;;16.45;68.77
76753;BME280;65687;51.308;16.916;2023-06-14T08:32:41;99783.07;;;16.94;67.77
76753;BME280;65687;51.308;16.916;2023-06-14T08:37:43;99787.43;;;17.23;65.78
76753;BME280;65687;51.308;16.916;2023-06-14T08:42:45;99788.05;;;17.31;65.09
76753;BME280;65687;51.308;16.916;2023-06-14T08:47:48;99784.40;;;17.11;65.04
76753;BME280;65687;51.308;16.916;2023-06-14T08:52:55;99780.34;;;17.11;65.89
76753;BME280;65687;51.308;16.916;2023-06-14T08:57:58;99780.05;;;17.36;64.38
76753;BME280;65687;51.308;16.916;2023-06-14T09:03:00;99785.48;;;17.39;64.57
76753;BME280;65687;51.308;16.916;2023-06-14T09:08:02;99791.55;;;17.28;63.62
76753;BME280;65687;51.308;16.916;2023-06-14T09:13:04;99792.20;;;17.27;63.93
76753;BME280;65687;51.308;16.916;2023-06-14T09:18:05;99795.80;;;17.28;63.33
76753;BME280;65687;51.308;16.916;2023-06-14T09:23:08;99799.75;;;17.19;63.32
76753;BME280;65687;51.308;16.916;2023-06-14T09:28:09;99803.54;;;17.11;63.20
76753;BME280;65687;51.308;16.916;2023-06-14T09:33:16;99805.48;;;17.00;63.79
76753;BME280;65687;51.308;16.916;2023-06-14T09:38:18;99801.02;;;16.94;63.80
76753;BME280;65687;51.308;16.916;2023-06-14T09:43:20;99793.95;;;16.98;64.35
76753;BME280;65687;51.308;16.916;2023-06-14T09:48:23;99791.81;;;16.95;63.89
76753;BME280;65687;51.308;16.916;2023-06-14T09:53:25;99788.95;;;16.96;64.05
76753;BME280;65687;51.308;16.916;2023-06-14T09:58:28;99786.98;;;17.07;62.62
76753;BME280;65687;51.308;16.916;2023-06-14T10:03:31;99781.80;;;17.46;62.65
76753;BME280;65687;51.308;16.916;2023-06-14T10:08:36;99781.95;;;17.88;60.83
76753;BME280;65687;51.308;16.916;2023-06-14T10:13:39;99781.42;;;18.01;59.62
76753;BME280;65687;51.308;16.916;2023-06-14T10:18:49;99787.54;;;17.96;59.50
76753;BME280;65687;51.308;16.916;2023-06-14T10:23:52;99786.77;;;17.79;60.83
76753;BME280;65687;51.308;16.916;2023-06-14T10:29:07;99786.59;;;17.74;61.11
76753;BME280;65687;51.308;16.916;2023-06-14T10:34:09;99780.52;;;17.90;61.37
76753;BME280;65687;51.308;16.916;2023-06-14T10:39:15;99783.48;;;18.07;60.34
76753;BME280;65687;51.308;16.916;2023-06-14T10:44:30;99775.21;;;18.15;60.02
76753;BME280;65687;51.308;16.916;2023-06-14T10:49:40;99780.27;;;18.29;59.51
76753;BME280;65687;51.308;16.916;2023-06-14T11:00:07;99780.39;;;18.06;58.96
76753;BME280;65687;51.308;16.916;2023-06-14T11:05:24;99778.89;;;17.93;59.84
76753;BME280;65687;51.308;16.916;2023-06-14T11:10:43;99779.91;;;17.83;59.07
76753;BME280;65687;51.308;16.916;2023-06-14T11:15:47;99779.76;;;17.78;59.04
76753;BME280;65687;51.308;16.916;2023-06-14T11:20:49;99776.39;;;17.80;58.21
76753;BME280;65687;51.308;16.916;2023-06-14T11:25:52;99771.19;;;17.73;58.27
76753;BME280;65687;51.308;16.916;2023-06-14T11:31:01;99771.64;;;17.62;58.84
76753;BME280;65687;51.308;16.916;2023-06-14T11:36:05;99772.01;;;17.59;59.43
76753;BME280;65687;51.308;16.916;2023-06-14T11:41:09;99766.22;;;17.59;59.13
76753;BME280;65687;51.308;16.916;2023-06-14T11:46:15;99765.30;;;17.61;59.45
76753;BME280;65687;51.308;16.916;2023-06-14T11:51:18;99763.14;;;17.73;58.98
76753;BME280;65687;51.308;16.916;2023-06-14T11:56:21;99760.66;;;17.85;58.79
76753;BME280;65687;51.308;16.916;2023-06-14T12:01:23;99763.80;;;18.06;58.84
76753;BME280;65687;51.308;16.916;2023-06-14T12:06:26;99760.05;;;18.27;58.13
76753;BME280;65687;51.308;16.916;2023-06-14T12:11:35;99759.77;;;18.34;57.35
76753;BME280;65687;51.308;16.916;2023-06-14T12:16:38;99758.15;;;18.37;57.16
76753;BME280;65687;51.308;16.916;2023-06-14T12:21:42;99746.59;;;18.44;57.07
76753;BME280;65687;51.308;16.916;2023-06-14T12:26:45;99737.39;;;18.61;57.31
76753;BME280;65687;51.308;16.916;2023-06-14T12:31:48;99735.13;;;18.71;56.14
76753;BME280;65687;51.308;16.916;2023-06-14T12:36:50;99732.30;;;18.67;56.44
76753;BME280;65687;51.308;16.916;2023-06-14T12:41:51;99739.14;;;18.62;57.66
76753;BME280;65687;51.308;16.916;2023-06-14T12:46:53;99736.67;;;18.56;56.59
76753;BME280;65687;51.308;16.916;2023-06-14T12:51:55;99734.36;;;18.53;56.42
76753;BME280;65687;51.308;16.916;2023-06-14T12:56:57;99728.45;;;18.49;57.42
76753;BME280;65687;51.308;16.916;2023-06-14T13:02:10;99727.20;;;18.42;56.95
76753;BME280;65687;51.308;16.916;2023-06-14T13:07:12;99730.30;;;18.38;57.31
76753;BME280;65687;51.308;16.916;2023-06-14T13:12:14;99730.46;;;18.38;57.17
76753;BME280;65687;51.308;16.916;2023-06-14T13:17:15;99724.34;;;18.38;56.07
76753;BME280;65687;51.308;16.916;2023-06-14T13:22:17;99717.42;;;18.41;55.79
76753;BME280;65687;51.308;16.916;2023-06-14T13:27:19;99714.73;;;18.43;55.89
76753;BME280;65687;51.308;16.916;2023-06-14T13:32:22;99715.50;;;18.45;55.50
76753;BME280;65687;51.308;16.916;2023-06-14T13:37:23;99716.10;;;18.43;55.63
76753;BME280;65687;51.308;16.916;2023-06-14T13:42:25;99719.67;;;18.42;56.35
76753;BME280;65687;51.308;16.916;2023-06-14T13:47:27;99718.61;;;18.42;55.98
76753;BME280;65687;51.308;16.916;2023-06-14T13:52:29;99720.78;;;18.45;56.14
76753;BME280;65687;51.308;16.916;2023-06-14T13:57:30;99719.50;;;18.47;54.87
76753;BME280;65687;51.308;16.916;2023-06-14T14:02:32;99718.64;;;18.53;55.21
76753;BME280;65687;51.308;16.916;2023-06-14T14:07:33;99715.89;;;18.62;55.02
76753;BME280;65687;51.308;16.916;2023-06-14T14:12:36;99714.90;;;18.63;54.40
76753;BME280;65687;51.308;16.916;2023-06-14T14:17:40;99719.15;;;18.68;53.98
76753;BME280;65687;51.308;16.916;2023-06-14T14:22:42;99716.36;;;18.72;54.98
76753;BME280;65687;51.308;16.916;2023-06-14T14:27:43;99717.95;;;18.74;55.54
76753;BME280;65687;51.308;16.916;2023-06-14T14:32:45;99716.81;;;18.70;55.83
76753;BME280;65687;51.308;16.916;2023-06-14T14:37:46;99715.41;;;18.75;55.52
76753;BME280;65687;51.308;16.916;2023-06-14T14:42:48;99709.42;;;18.75;56.04
76753;BME280;65687;51.308;16.916;2023-06-14T14:47:49;99718.58;;;18.61;55.99
76753;BME280;65687;51.308;16.916;2023-06-14T14:52:51;99720.56;;;18.49;56.29
76753;BME280;65687;51.308;16.916;2023-06-14T14:57:53;99728.03;;;18.36;56.41
76753;BME280;65687;51.308;16.916;2023-06-14T15:02:54;99733.88;;;18.22;56.91
76753;BME280;65687;51.308;16.916;2023-06-14T15:07:56;99738.04;;;18.08;57.53
76753;BME280;65687;51.308;16.916;2023-06-14T15:12:57;99737.69;;;17.92;58.15
76753;BME280;65687;51.308;16.916;2023-06-14T15:17:59;99740.54;;;17.76;58.34
76753;BME280;65687;51.308;16.916;2023-06-14T15:23:01;99744.60;;;17.70;58.22
76753;BME280;65687;51.308;16.916;2023-06-14T15:28:03;99744.72;;;17.63;58.36
76753;BME280;65687;51.308;16.916;2023-06-14T15:33:08;99739.20;;;17.58;58.71
76753;BME280;65687;51.308;16.916;2023-06-14T15:38:09;99738.35;;;17.54;59.02
76753;BME280;65687;51.308;16.916;2023-06-14T15:43:11;99737.34;;;17.54;59.74
76753;BME280;65687;51.308;16.916;2023-06-14T15:48:12;99743.36;;;17.55;59.19
76753;BME280;65687;51.308;16.916;2023-06-14T15:53:14;99739.42;;;17.60;59.45
76753;BME280;65687;51.308;16.916;2023-06-14T15:58:16;99737.63;;;17.61;60.12
76753;BME280;65687;51.308;16.916;2023-06-14T16:03:18;99740.12;;;17.60;59.77
76753;BME280;65687;51.308;16.916;2023-06-14T16:08:20;99735.95;;;17.58;60.00
76753;BME280;65687;51.308;16.916;2023-06-14T16:13:21;99735.31;;;17.50;60.76
76753;BME280;65687;51.308;16.916;2023-06-14T16:18:23;99735.83;;;17.40;61.61
76753;BME280;65687;51.308;16.916;2023-06-14T16:23:24;99735.55;;;17.33;61.84
76753;BME280;65687;51.308;16.916;2023-06-14T16:28:26;99736.30;;;17.25;61.97
76753;BME280;65687;51.308;16.916;2023-06-14T16:33:27;99738.56;;;17.17;61.96
76753;BME280;65687;51.308;16.916;2023-06-14T16:38:29;99743.73;;;17.09;61.59
76753;BME280;65687;51.308;16.916;2023-06-14T16:43:31;99746.39;;;17.03;62.29
76753;BME280;65687;51.308;16.916;2023-06-14T16:48:32;99750.44;;;16.98;62.83
76753;BME280;65687;51.308;16.916;2023-06-14T16:53:34;99754.36;;;16.93;62.78
76753;BME280;65687;51.308;16.916;2023-06-14T16:58:36;99753.03;;;16.89;62.72
76753;BME280;65687;51.308;16.916;2023-06-14T17:03:38;99754.71;;;16.88;63.97
76753;BME280;65687;51.308;16.916;2023-06-14T17:08:40;99753.66;;;16.88;62.91
76753;BME280;65687;51.308;16.916;2023-06-14T17:13:41;99750.42;;;16.88;62.90
76753;BME280;65687;51.308;16.916;2023-06-14T17:18:43;99747.94;;;16.90;63.33
76753;BME280;65687;51.308;16.916;2023-06-14T17:23:45;99748.58;;;16.93;63.18
76753;BME280;65687;51.308;16.916;2023-06-14T17:28:46;99752.66;;;16.93;63.20
76753;BME280;65687;51.308;16.916;2023-06-14T17:33:48;99756.95;;;16.89;63.09
76753;BME280;65687;51.308;16.916;2023-06-14T17:38:49;99758.80;;;16.88;63.39
76753;BME280;65687;51.308;16.916;2023-06-14T17:43:51;99766.11;;;16.83;63.62
76753;BME280;65687;51.308;16.916;2023-06-14T17:48:53;99768.38;;;16.80;63.70
76753;BME280;65687;51.308;16.916;2023-06-14T17:53:55;99773.01;;;16.76;63.77
76753;BME280;65687;51.308;16.916;2023-06-14T17:58:57;99760.05;;;16.68;63.84
76753;BME280;65687;51.308;16.916;2023-06-14T18:03:59;99758.09;;;16.66;63.90
76753;BME280;65687;51.308;16.916;2023-06-14T18:09:01;99771.48;;;16.64;64.79
76753;BME280;65687;51.308;16.916;2023-06-14T18:14:03;99771.23;;;16.62;65.20
76753;BME280;65687;51.308;16.916;2023-06-14T18:19:05;99769.37;;;16.59;65.34
76753;BME280;65687;51.308;16.916;2023-06-14T18:24:06;99772.23;;;16.58;65.22
76753;BME280;65687;51.308;16.916;2023-06-14T18:29:08;99771.23;;;16.62;65.72
76753;BME280;65687;51.308;16.916;2023-06-14T18:34:10;99773.53;;;16.60;65.69
76753;BME280;65687;51.308;16.916;2023-06-14T18:39:14;99772.03;;;16.57;65.88
76753;BME280;65687;51.308;16.916;2023-06-14T18:44:17;99776.90;;;16.55;66.28
76753;BME280;65687;51.308;16.916;2023-06-14T18:49:18;99778.52;;;16.53;66.67
76753;BME280;65687;51.308;16.916;2023-06-14T18:54:19;99790.18;;;16.50;66.42
76753;BME280;65687;51.308;16.916;2023-06-14T18:59:21;99789.92;;;16.40;66.75
76753;BME280;65687;51.308;16.916;2023-06-14T19:04:23;99789.31;;;16.29;67.59
76753;BME280;65687;51.308;16.916;2023-06-14T19:09:25;99791.13;;;16.24;67.49
76753;BME280;65687;51.308;16.916;2023-06-14T19:14:26;99789.22;;;16.19;68.04
76753;BME280;65687;51.308;16.916;2023-06-14T19:19:28;99791.52;;;16.08;68.38
76753;BME280;65687;51.308;16.916;2023-06-14T19:24:29;99794.74;;;16.00;68.57
76753;BME280;65687;51.308;16.916;2023-06-14T19:29:32;99801.28;;;15.94;68.92
76753;BME280;65687;51.308;16.916;2023-06-14T19:34:36;99803.83;;;15.86;69.64
76753;BME280;65687;51.308;16.916;2023-06-14T19:39:44;99796.69;;;15.78;70.32
76753;BME280;65687;51.308;16.916;2023-06-14T19:44:46;99803.31;;;15.77;70.07
76753;BME280;65687;51.308;16.916;2023-06-14T19:49:47;99806.59;;;15.75;70.17
76753;BME280;65687;51.308;16.916;2023-06-14T19:54:49;99810.58;;;15.76;70.24
76753;BME280;65687;51.308;16.916;2023-06-14T19:59:51;99808.13;;;15.67;70.23
76753;BME280;65687;51.308;16.916;2023-06-14T20:04:52;99815.02;;;15.51;71.03
76753;BME280;65687;51.308;16.916;2023-06-14T20:09:56;99814.14;;;15.35;71.45
76753;BME280;65687;51.308;16.916;2023-06-14T20:14:57;99819.77;;;15.28;71.36
76753;BME280;65687;51.308;16.916;2023-06-14T20:19:59;99821.21;;;15.22;71.32
76753;BME280;65687;51.308;16.916;2023-06-14T20:25:00;99822.10;;;15.27;71.27
76753;BME280;65687;51.308;16.916;2023-06-14T20:30:03;99825.17;;;15.23;71.36
76753;BME280;65687;51.308;16.916;2023-06-14T20:35:05;99830.36;;;15.18;71.65
76753;BME280;65687;51.308;16.916;2023-06-14T20:40:09;99824.89;;;15.17;71.55
76753;BME280;65687;51.308;16.916;2023-06-14T20:45:19;99822.91;;;15.22;71.32
76753;BME280;65687;51.308;16.916;2023-06-14T20:50:23;99821.36;;;15.18;71.44
76753;BME280;65687;51.308;16.916;2023-06-14T20:55:24;99826.30;;;15.08;71.85
76753;BME280;65687;51.308;16.916;2023-06-14T21:00:26;99820.07;;;15.01;71.79
76753;BME280;65687;51.308;16.916;2023-06-14T21:05:29;99818.35;;;15.05;71.88
76753;BME280;65687;51.308;16.916;2023-06-14T21:10:31;99814.29;;;15.09;71.71
76753;BME280;65687;51.308;16.916;2023-06-14T21:15:33;99811.25;;;15.09;71.85
76753;BME280;65687;51.308;16.916;2023-06-14T21:20:34;99810.83;;;15.04;72.07
76753;BME280;65687;51.308;16.916;2023-06-14T21:25:36;99812.83;;;14.96;72.31
76753;BME280;65687;51.308;16.916;2023-06-14T21:30:37;99817.27;;;14.89;72.60
76753;BME280;65687;51.308;16.916;2023-06-14T21:35:39;99817.55;;;14.84;72.88
76753;BME280;65687;51.308;16.916;2023-06-14T21:40:41;99814.85;;;14.81;73.03
76753;BME280;65687;51.308;16.916;2023-06-14T21:45:42;99814.55;;;14.82;72.88
76753;BME280;65687;51.308;16.916;2023-06-14T21:50:45;99817.58;;;14.81;72.97
76753;BME280;65687;51.308;16.916;2023-06-14T21:55:47;99820.79;;;14.84;73.04
76753;BME280;65687;51.308;16.916;2023-06-14T22:00:48;99818.34;;;14.83;73.00
76753;BME280;65687;51.308;16.916;2023-06-14T22:05:50;99813.04;;;14.83;72.98
76753;BME280;65687;51.308;16.916;2023-06-14T22:10:51;99809.98;;;14.75;73.34
76753;BME280;65687;51.308;16.916;2023-06-14T22:15:53;99812.45;;;14.63;73.67
76753;BME280;65687;51.308;16.916;2023-06-14T22:20:57;99805.90;;;14.61;73.70
76753;BME280;65687;51.308;16.916;2023-06-14T22:26:05;99806.27;;;14.62;73.60
76753;BME280;65687;51.308;16.916;2023-06-14T22:31:10;99800.45;;;14.65;73.72
76753;BME280;65687;51.308;16.916;2023-06-14T22:36:13;99796.85;;;14.60;73.98
76753;BME280;65687;51.308;16.916;2023-06-14T22:41:18;99792.26;;;14.57;74.11
76753;BME280;65687;51.308;16.916;2023-06-14T22:46:19;99787.61;;;14.52;74.37
76753;BME280;65687;51.308;16.916;2023-06-14T22:51:24;99791.39;;;14.50;74.56
76753;BME280;65687;51.308;16.916;2023-06-14T22:56:26;99789.13;;;14.55;74.43
76753;BME280;65687;51.308;16.916;2023-06-14T23:01:27;99790.95;;;14.61;74.29
76753;BME280;65687;51.308;16.916;2023-06-14T23:06:29;99792.26;;;14.53;74.56
76753;BME280;65687;51.308;16.916;2023-06-14T23:11:31;99787.83;;;14.43;74.74
76753;BME280;65687;51.308;16.916;2023-06-14T23:16:34;99789.08;;;14.41;74.92
76753;BME280;65687;51.308;16.916;2023-06-14T23:21:36;99793.76;;;14.33;74.97
76753;BME280;65687;51.308;16.916;2023-06-14T23:26:37;99785.07;;;14.32;74.97
76753;BME280;65687;51.308;16.916;2023-06-14T23:31:42;99783.70;;;14.25;75.59
76753;BME280;65687;51.308;16.916;2023-06-14T23:36:46;99786.14;;;14.23;75.47
76753;BME280;65687;51.308;16.916;2023-06-14T23:41:48;99787.10;;;14.32;75.40
76753;BME280;65687;51.308;16.916;2023-06-14T23:46:52;99786.17;;;14.31;75.32
76753;BME280;65687;51.308;16.916;2023-06-14T23:51:57;99781.38;;;14.33;75.26
76753;BME280;65687;51.308;16.916;2023-06-14T23:57:03;99770.77;;;14.31;75.53
